Stanwood, Washington
Current Conditions -  °F | °C
As of 4:15 AM on Monday 26 Jan 2015 (Local Time) from KAWO Reporting Station
Overcast Overcast  
Wind Chill: 38°   Ceiling: 200
Heat Index: 41°   Visibility: 0.25mi
Dew Point: 37°   Wind: 5mph
Humidity: 87%   Direction: 190°S
Pressure: 29.92"   Gusts: NA
Location:  48.24°N, 122.37°W
Report Text: KAWO 261215Z AUTO 19004KT 1/4SM OVC002 05/03 A2992 RMK AO1
Loading
Personal Weather Stations






























Interactive Weather Map New forecast layout! Learn more

10-Day Weather Forecast

Advertisements
Track Severe Weather on mobile